sensor_id;sensor_type;location;lat;lon;timestamp;pressure;altitude;pressure_sealevel;temperature;humidity
19005;BME280;9635;52.078;8.648;2023-02-22T00:00:26;100482.75;;;7.72;84.41
19005;BME280;9635;52.078;8.648;2023-02-22T00:05:41;100480.28;;;7.69;84.69
19005;BME280;9635;52.078;8.648;2023-02-22T00:10:48;100482.44;;;7.77;84.31
19005;BME280;9635;52.078;8.648;2023-02-22T00:15:51;100472.81;;;7.75;84.33
19005;BME280;9635;52.078;8.648;2023-02-22T00:20:55;100463.50;;;7.80;84.28
19005;BME280;9635;52.078;8.648;2023-02-22T00:26:01;100466.94;;;7.82;84.19
19005;BME280;9635;52.078;8.648;2023-02-22T00:31:05;100459.00;;;7.81;83.84
19005;BME280;9635;52.078;8.648;2023-02-22T00:36:10;100456.13;;;7.84;83.97
19005;BME280;9635;52.078;8.648;2023-02-22T00:41:15;100454.72;;;7.78;84.01
19005;BME280;9635;52.078;8.648;2023-02-22T00:46:18;100455.19;;;7.85;83.78
19005;BME280;9635;52.078;8.648;2023-02-22T00:51:24;100454.13;;;7.87;83.75
19005;BME280;9635;52.078;8.648;2023-02-22T00:56:28;100446.41;;;7.83;83.61
19005;BME280;9635;52.078;8.648;2023-02-22T01:01:32;100438.59;;;7.80;83.35
19005;BME280;9635;52.078;8.648;2023-02-22T01:06:35;100444.25;;;7.75;83.46
19005;BME280;9635;52.078;8.648;2023-02-22T01:11:39;100440.28;;;7.68;83.66
19005;BME280;9635;52.078;8.648;2023-02-22T01:16:42;100442.41;;;7.63;83.65
19005;BME280;9635;52.078;8.648;2023-02-22T01:21:46;100434.38;;;7.50;84.08
19005;BME280;9635;52.078;8.648;2023-02-22T01:26:51;100442.13;;;7.40;84.01
19005;BME280;9635;52.078;8.648;2023-02-22T01:31:55;100434.84;;;7.30;83.96
19005;BME280;9635;52.078;8.648;2023-02-22T01:36:58;100426.28;;;7.24;84.52
19005;BME280;9635;52.078;8.648;2023-02-22T01:42:03;100415.25;;;7.16;84.52
19005;BME280;9635;52.078;8.648;2023-02-22T01:47:06;100408.16;;;7.15;84.67
19005;BME280;9635;52.078;8.648;2023-02-22T01:52:14;100392.91;;;7.17;84.08
19005;BME280;9635;52.078;8.648;2023-02-22T01:57:24;100387.50;;;7.04;83.97
19005;BME280;9635;52.078;8.648;2023-02-22T02:02:30;100391.97;;;6.91;83.82
19005;BME280;9635;52.078;8.648;2023-02-22T02:07:35;100386.53;;;6.78;84.16
19005;BME280;9635;52.078;8.648;2023-02-22T02:12:42;100380.84;;;6.70;84.11
19005;BME280;9635;52.078;8.648;2023-02-22T02:17:46;100374.28;;;6.61;84.12
19005;BME280;9635;52.078;8.648;2023-02-22T02:22:55;100374.00;;;6.52;84.18
19005;BME280;9635;52.078;8.648;2023-02-22T02:33:43;100364.88;;;6.42;84.23
19005;BME280;9635;52.078;8.648;2023-02-22T02:38:56;100355.56;;;6.34;84.31
19005;BME280;9635;52.078;8.648;2023-02-22T02:44:02;100346.34;;;6.26;84.26
19005;BME280;9635;52.078;8.648;2023-02-22T02:49:14;100344.63;;;6.10;84.36
19005;BME280;9635;52.078;8.648;2023-02-22T02:54:19;100336.75;;;6.09;84.40
19005;BME280;9635;52.078;8.648;2023-02-22T02:59:28;100323.69;;;6.04;84.80
19005;BME280;9635;52.078;8.648;2023-02-22T03:04:47;100322.16;;;6.00;84.75
19005;BME280;9635;52.078;8.648;2023-02-22T03:10:04;100314.56;;;5.94;84.98
19005;BME280;9635;52.078;8.648;2023-02-22T03:15:21;100313.59;;;5.95;85.18
19005;BME280;9635;52.078;8.648;2023-02-22T03:20:40;100323.03;;;6.01;85.27
19005;BME280;9635;52.078;8.648;2023-02-22T03:25:48;100305.09;;;6.03;85.28
19005;BME280;9635;52.078;8.648;2023-02-22T03:30:57;100304.00;;;5.92;85.09
19005;BME280;9635;52.078;8.648;2023-02-22T03:36:07;100307.59;;;5.91;85.34
19005;BME280;9635;52.078;8.648;2023-02-22T03:41:15;100304.94;;;5.91;85.46
19005;BME280;9635;52.078;8.648;2023-02-22T03:46:21;100306.84;;;5.89;85.58
19005;BME280;9635;52.078;8.648;2023-02-22T03:51:26;100298.19;;;5.86;85.61
19005;BME280;9635;52.078;8.648;2023-02-22T03:56:38;100292.19;;;5.82;85.57
19005;BME280;9635;52.078;8.648;2023-02-22T04:01:47;100295.06;;;5.79;85.82
19005;BME280;9635;52.078;8.648;2023-02-22T04:06:53;100297.91;;;5.76;85.68
19005;BME280;9635;52.078;8.648;2023-02-22T04:11:57;100298.47;;;5.81;85.84
19005;BME280;9635;52.078;8.648;2023-02-22T04:17:01;100295.72;;;5.83;86.10
19005;BME280;9635;52.078;8.648;2023-02-22T04:22:06;100296.75;;;5.80;86.16
19005;BME280;9635;52.078;8.648;2023-02-22T04:27:09;100294.38;;;5.76;86.32
19005;BME280;9635;52.078;8.648;2023-02-22T04:32:14;100287.13;;;5.78;86.24
19005;BME280;9635;52.078;8.648;2023-02-22T04:37:18;100293.44;;;5.77;85.93
19005;BME280;9635;52.078;8.648;2023-02-22T04:42:22;100292.66;;;5.75;85.95
19005;BME280;9635;52.078;8.648;2023-02-22T04:47:26;100298.28;;;5.70;85.92
19005;BME280;9635;52.078;8.648;2023-02-22T04:52:30;100290.47;;;5.67;85.96
19005;BME280;9635;52.078;8.648;2023-02-22T04:57:33;100287.03;;;5.65;86.17
19005;BME280;9635;52.078;8.648;2023-02-22T05:02:37;100280.13;;;5.62;85.99
19005;BME280;9635;52.078;8.648;2023-02-22T05:07:41;100278.50;;;5.60;86.00
19005;BME280;9635;52.078;8.648;2023-02-22T05:12:45;100265.19;;;5.60;86.08
19005;BME280;9635;52.078;8.648;2023-02-22T05:17:47;100267.72;;;5.61;86.28
19005;BME280;9635;52.078;8.648;2023-02-22T05:22:52;100257.19;;;5.60;86.32
19005;BME280;9635;52.078;8.648;2023-02-22T05:27:56;100262.13;;;5.66;86.72
19005;BME280;9635;52.078;8.648;2023-02-22T05:32:59;100256.59;;;5.69;86.49
19005;BME280;9635;52.078;8.648;2023-02-22T05:38:04;100247.56;;;5.71;86.45
19005;BME280;9635;52.078;8.648;2023-02-22T05:43:08;100244.22;;;5.68;86.51
19005;BME280;9635;52.078;8.648;2023-02-22T05:48:11;100239.94;;;5.65;86.68
19005;BME280;9635;52.078;8.648;2023-02-22T05:53:15;100239.06;;;5.65;87.03
19005;BME280;9635;52.078;8.648;2023-02-22T05:58:18;100243.53;;;5.79;86.87
19005;BME280;9635;52.078;8.648;2023-02-22T06:03:21;100237.75;;;5.72;87.12
19005;BME280;9635;52.078;8.648;2023-02-22T06:08:25;100238.31;;;5.77;87.53
19005;BME280;9635;52.078;8.648;2023-02-22T06:13:28;100231.81;;;5.81;87.63
19005;BME280;9635;52.078;8.648;2023-02-22T06:18:31;100236.50;;;5.78;87.55
19005;BME280;9635;52.078;8.648;2023-02-22T06:23:35;100228.09;;;5.84;87.41
19005;BME280;9635;52.078;8.648;2023-02-22T06:28:38;100227.44;;;5.80;87.18
19005;BME280;9635;52.078;8.648;2023-02-22T06:33:41;100225.06;;;5.76;87.24
19005;BME280;9635;52.078;8.648;2023-02-22T06:38:45;100236.50;;;5.78;87.40
19005;BME280;9635;52.078;8.648;2023-02-22T06:43:48;100229.63;;;5.88;87.50
19005;BME280;9635;52.078;8.648;2023-02-22T06:48:50;100237.22;;;5.94;87.58
19005;BME280;9635;52.078;8.648;2023-02-22T06:53:54;100229.59;;;6.02;87.82
19005;BME280;9635;52.078;8.648;2023-02-22T06:58:58;100237.06;;;6.24;87.86
19005;BME280;9635;52.078;8.648;2023-02-22T07:04:03;100238.97;;;6.49;87.54
19005;BME280;9635;52.078;8.648;2023-02-22T07:09:07;100231.97;;;6.61;87.19
19005;BME280;9635;52.078;8.648;2023-02-22T07:14:10;100238.50;;;6.82;86.61
19005;BME280;9635;52.078;8.648;2023-02-22T07:19:13;100236.22;;;6.91;86.74
19005;BME280;9635;52.078;8.648;2023-02-22T07:24:17;100240.63;;;7.17;85.96
19005;BME280;9635;52.078;8.648;2023-02-22T07:29:20;100240.31;;;7.22;85.16
19005;BME280;9635;52.078;8.648;2023-02-22T07:34:24;100238.06;;;7.16;84.68
19005;BME280;9635;52.078;8.648;2023-02-22T07:39:28;100240.44;;;7.33;84.32
19005;BME280;9635;52.078;8.648;2023-02-22T07:44:30;100242.44;;;7.68;83.63
19005;BME280;9635;52.078;8.648;2023-02-22T07:49:33;100244.22;;;7.80;81.78
19005;BME280;9635;52.078;8.648;2023-02-22T07:54:37;100245.38;;;7.76;81.81
19005;BME280;9635;52.078;8.648;2023-02-22T07:59:40;100236.13;;;7.69;81.78
19005;BME280;9635;52.078;8.648;2023-02-22T08:04:43;100234.03;;;7.98;81.13
19005;BME280;9635;52.078;8.648;2023-02-22T08:09:47;100238.09;;;8.28;80.11
19005;BME280;9635;52.078;8.648;2023-02-22T08:14:50;100231.69;;;8.54;78.93
19005;BME280;9635;52.078;8.648;2023-02-22T08:19:53;100232.31;;;8.58;78.31
19005;BME280;9635;52.078;8.648;2023-02-22T08:24:57;100232.88;;;8.86;77.75
19005;BME280;9635;52.078;8.648;2023-02-22T08:30:00;100231.53;;;8.80;76.91
19005;BME280;9635;52.078;8.648;2023-02-22T08:35:03;100223.09;;;9.09;76.55
19005;BME280;9635;52.078;8.648;2023-02-22T08:40:08;100224.97;;;9.42;75.58
19005;BME280;9635;52.078;8.648;2023-02-22T08:45:14;100219.75;;;9.97;73.68
19005;BME280;9635;52.078;8.648;2023-02-22T08:50:19;100210.63;;;10.31;71.83
19005;BME280;9635;52.078;8.648;2023-02-22T08:55:25;100207.59;;;10.57;70.50
19005;BME280;9635;52.078;8.648;2023-02-22T09:00:29;100202.75;;;10.72;70.64
19005;BME280;9635;52.078;8.648;2023-02-22T09:05:33;100195.09;;;11.09;69.21
19005;BME280;9635;52.078;8.648;2023-02-22T09:16:09;100193.94;;;11.23;68.35
19005;BME280;9635;52.078;8.648;2023-02-22T09:21:12;100181.44;;;11.12;68.52
19005;BME280;9635;52.078;8.648;2023-02-22T09:26:15;100183.59;;;11.49;67.17
19005;BME280;9635;52.078;8.648;2023-02-22T09:31:19;100181.63;;;11.51;67.12
19005;BME280;9635;52.078;8.648;2023-02-22T09:36:22;100168.31;;;12.09;66.22
19005;BME280;9635;52.078;8.648;2023-02-22T09:41:30;100172.78;;;12.59;63.60
19005;BME280;9635;52.078;8.648;2023-02-22T09:46:39;100162.28;;;12.36;64.92
19005;BME280;9635;52.078;8.648;2023-02-22T09:51:49;100161.72;;;12.62;64.38
19005;BME280;9635;52.078;8.648;2023-02-22T09:56:55;100155.63;;;12.41;64.57
19005;BME280;9635;52.078;8.648;2023-02-22T10:02:04;100160.03;;;12.51;64.07
19005;BME280;9635;52.078;8.648;2023-02-22T10:07:17;100162.69;;;12.80;63.55
19005;BME280;9635;52.078;8.648;2023-02-22T10:12:29;100147.16;;;13.12;62.60
19005;BME280;9635;52.078;8.648;2023-02-22T10:17:43;100137.63;;;13.55;61.32
19005;BME280;9635;52.078;8.648;2023-02-22T10:23:06;100133.00;;;13.47;60.71
19005;BME280;9635;52.078;8.648;2023-02-22T10:28:17;100131.22;;;13.28;61.03
19005;BME280;9635;52.078;8.648;2023-02-22T10:33:24;100134.28;;;13.43;60.82
19005;BME280;9635;52.078;8.648;2023-02-22T10:38:29;100124.59;;;13.78;60.73
19005;BME280;9635;52.078;8.648;2023-02-22T10:43:36;100118.59;;;13.84;60.38
19005;BME280;9635;52.078;8.648;2023-02-22T10:48:46;100116.41;;;13.87;60.15
19005;BME280;9635;52.078;8.648;2023-02-22T10:54:17;100118.34;;;14.67;59.09
19005;BME280;9635;52.078;8.648;2023-02-22T10:59:29;100108.50;;;14.83;57.45
19005;BME280;9635;52.078;8.648;2023-02-22T11:04:45;100100.25;;;15.11;58.13
19005;BME280;9635;52.078;8.648;2023-02-22T11:09:52;100093.97;;;15.37;56.93
19005;BME280;9635;52.078;8.648;2023-02-22T11:14:55;100103.31;;;15.51;56.73
19005;BME280;9635;52.078;8.648;2023-02-22T11:19:59;100092.84;;;15.47;56.31
19005;BME280;9635;52.078;8.648;2023-02-22T11:25:04;100090.06;;;15.90;55.34
19005;BME280;9635;52.078;8.648;2023-02-22T11:30:20;100090.50;;;16.44;53.96
19005;BME280;9635;52.078;8.648;2023-02-22T11:35:36;100084.00;;;16.21;53.79
19005;BME280;9635;52.078;8.648;2023-02-22T11:40:40;100073.19;;;16.45;53.39
19005;BME280;9635;52.078;8.648;2023-02-22T11:45:58;100066.09;;;16.52;53.07
19005;BME280;9635;52.078;8.648;2023-02-22T11:51:22;100059.16;;;16.33;52.88
19005;BME280;9635;52.078;8.648;2023-02-22T11:56:32;100050.53;;;17.18;51.96
19005;BME280;9635;52.078;8.648;2023-02-22T12:01:42;100046.69;;;17.44;50.22
19005;BME280;9635;52.078;8.648;2023-02-22T12:06:55;100045.63;;;17.06;50.39
19005;BME280;9635;52.078;8.648;2023-02-22T12:12:11;100046.94;;;17.26;50.59
19005;BME280;9635;52.078;8.648;2023-02-22T12:17:24;100031.97;;;16.83;50.13
19005;BME280;9635;52.078;8.648;2023-02-22T12:22:40;100030.69;;;17.10;49.00
19005;BME280;9635;52.078;8.648;2023-02-22T12:27:48;100018.72;;;17.35;48.65
19005;BME280;9635;52.078;8.648;2023-02-22T12:32:55;100020.25;;;17.38;47.72
19005;BME280;9635;52.078;8.648;2023-02-22T12:38:05;100010.31;;;17.22;49.37
19005;BME280;9635;52.078;8.648;2023-02-22T12:43:17;100016.38;;;16.85;50.06
19005;BME280;9635;52.078;8.648;2023-02-22T12:48:30;100005.13;;;17.43;49.31
19005;BME280;9635;52.078;8.648;2023-02-22T12:53:37;99999.16;;;17.17;48.84
19005;BME280;9635;52.078;8.648;2023-02-22T12:58:48;99993.56;;;17.41;48.74
19005;BME280;9635;52.078;8.648;2023-02-22T13:03:53;99994.22;;;17.52;48.82
19005;BME280;9635;52.078;8.648;2023-02-22T13:09:07;99987.03;;;17.82;47.67
19005;BME280;9635;52.078;8.648;2023-02-22T13:14:29;99993.13;;;18.30;45.94
19005;BME280;9635;52.078;8.648;2023-02-22T13:19:39;99983.31;;;17.83;47.18
19005;BME280;9635;52.078;8.648;2023-02-22T13:25:00;99974.75;;;17.09;49.38
19005;BME280;9635;52.078;8.648;2023-02-22T13:30:05;99976.13;;;17.36;48.56
19005;BME280;9635;52.078;8.648;2023-02-22T13:35:26;99973.25;;;17.37;48.26
19005;BME280;9635;52.078;8.648;2023-02-22T13:40:49;99976.41;;;16.78;49.71
19005;BME280;9635;52.078;8.648;2023-02-22T13:46:08;99971.06;;;16.38;50.25
19005;BME280;9635;52.078;8.648;2023-02-22T13:51:31;99965.66;;;16.21;51.48
19005;BME280;9635;52.078;8.648;2023-02-22T13:56:41;99969.56;;;16.02;51.47
19005;BME280;9635;52.078;8.648;2023-02-22T14:01:46;99964.97;;;16.19;51.40
19005;BME280;9635;52.078;8.648;2023-02-22T14:06:49;99964.97;;;16.44;50.74
19005;BME280;9635;52.078;8.648;2023-02-22T14:11:53;99966.09;;;16.57;49.74
19005;BME280;9635;52.078;8.648;2023-02-22T14:17:21;99961.38;;;16.59;50.45
19005;BME280;9635;52.078;8.648;2023-02-22T14:22:26;99951.91;;;16.39;50.36
19005;BME280;9635;52.078;8.648;2023-02-22T14:27:39;99953.63;;;16.07;50.88
19005;BME280;9635;52.078;8.648;2023-02-22T14:32:42;99959.41;;;15.72;51.89
19005;BME280;9635;52.078;8.648;2023-02-22T14:37:53;99955.69;;;15.22;53.20
19005;BME280;9635;52.078;8.648;2023-02-22T14:43:02;99957.06;;;15.18;54.26
19005;BME280;9635;52.078;8.648;2023-02-22T14:48:12;99954.25;;;14.93;54.50
19005;BME280;9635;52.078;8.648;2023-02-22T14:53:24;99947.78;;;14.44;55.65
19005;BME280;9635;52.078;8.648;2023-02-22T14:58:35;99941.75;;;14.58;56.42
19005;BME280;9635;52.078;8.648;2023-02-22T15:03:39;99931.38;;;14.45;57.47
19005;BME280;9635;52.078;8.648;2023-02-22T15:08:45;99936.69;;;14.55;57.25
19005;BME280;9635;52.078;8.648;2023-02-22T15:13:53;99942.88;;;14.21;57.99
19005;BME280;9635;52.078;8.648;2023-02-22T15:18:59;99937.56;;;14.11;58.31
19005;BME280;9635;52.078;8.648;2023-02-22T15:24:08;99930.31;;;14.12;58.71
19005;BME280;9635;52.078;8.648;2023-02-22T15:29:17;99930.75;;;13.99;59.20
19005;BME280;9635;52.078;8.648;2023-02-22T15:34:23;99925.75;;;13.86;59.68
19005;BME280;9635;52.078;8.648;2023-02-22T15:39:31;99924.97;;;13.76;59.72
19005;BME280;9635;52.078;8.648;2023-02-22T15:44:38;99923.94;;;13.69;59.95
19005;BME280;9635;52.078;8.648;2023-02-22T15:49:42;99923.31;;;13.57;60.50
19005;BME280;9635;52.078;8.648;2023-02-22T15:54:47;99935.03;;;13.48;61.01
19005;BME280;9635;52.078;8.648;2023-02-22T15:59:54;99932.00;;;13.33;61.32
19005;BME280;9635;52.078;8.648;2023-02-22T16:05:03;99935.50;;;13.16;62.23
19005;BME280;9635;52.078;8.648;2023-02-22T16:10:22;99940.81;;;13.08;62.28
19005;BME280;9635;52.078;8.648;2023-02-22T16:15:30;99934.06;;;12.94;62.70
19005;BME280;9635;52.078;8.648;2023-02-22T16:20:34;99933.03;;;12.77;63.04
19005;BME280;9635;52.078;8.648;2023-02-22T16:25:37;99934.69;;;12.60;63.85
19005;BME280;9635;52.078;8.648;2023-02-22T16:30:41;99935.75;;;12.39;64.28
19005;BME280;9635;52.078;8.648;2023-02-22T16:35:44;99939.16;;;12.22;64.78
19005;BME280;9635;52.078;8.648;2023-02-22T16:40:54;99942.63;;;12.05;65.68
19005;BME280;9635;52.078;8.648;2023-02-22T16:46:00;99945.75;;;11.90;66.10
19005;BME280;9635;52.078;8.648;2023-02-22T16:51:08;99950.72;;;11.76;66.57
19005;BME280;9635;52.078;8.648;2023-02-22T16:56:17;99951.28;;;11.60;67.08
19005;BME280;9635;52.078;8.648;2023-02-22T17:01:22;99949.59;;;11.49;67.40
19005;BME280;9635;52.078;8.648;2023-02-22T17:06:25;99951.44;;;11.39;67.92
19005;BME280;9635;52.078;8.648;2023-02-22T17:11:29;99970.66;;;11.34;67.92
19005;BME280;9635;52.078;8.648;2023-02-22T17:16:33;99966.56;;;11.30;68.20
19005;BME280;9635;52.078;8.648;2023-02-22T17:21:36;99970.50;;;11.26;68.33
19005;BME280;9635;52.078;8.648;2023-02-22T17:26:40;99962.28;;;11.18;68.30
19005;BME280;9635;52.078;8.648;2023-02-22T17:31:44;99957.84;;;11.07;68.59
19005;BME280;9635;52.078;8.648;2023-02-22T17:36:49;99972.56;;;11.03;68.88
19005;BME280;9635;52.078;8.648;2023-02-22T17:41:52;99973.53;;;11.02;69.22
19005;BME280;9635;52.078;8.648;2023-02-22T17:46:59;99978.78;;;11.03;69.15
19005;BME280;9635;52.078;8.648;2023-02-22T17:52:02;99970.84;;;11.02;69.21
19005;BME280;9635;52.078;8.648;2023-02-22T17:57:06;99978.91;;;11.02;68.48
19005;BME280;9635;52.078;8.648;2023-02-22T18:02:10;99974.81;;;10.98;67.93
19005;BME280;9635;52.078;8.648;2023-02-22T18:07:13;99976.94;;;10.94;67.76
19005;BME280;9635;52.078;8.648;2023-02-22T18:12:20;99973.75;;;10.79;68.11
19005;BME280;9635;52.078;8.648;2023-02-22T18:17:24;99970.88;;;10.71;68.32
19005;BME280;9635;52.078;8.648;2023-02-22T18:22:27;99979.78;;;10.72;68.57
19005;BME280;9635;52.078;8.648;2023-02-22T18:27:30;99977.25;;;10.70;68.45
19005;BME280;9635;52.078;8.648;2023-02-22T18:32:34;99981.50;;;10.73;68.06
19005;BME280;9635;52.078;8.648;2023-02-22T18:37:37;99984.03;;;10.74;67.48
19005;BME280;9635;52.078;8.648;2023-02-22T18:42:40;99976.72;;;10.76;66.64
19005;BME280;9635;52.078;8.648;2023-02-22T18:47:44;99984.88;;;10.75;65.61
19005;BME280;9635;52.078;8.648;2023-02-22T18:52:47;99984.59;;;10.68;65.09
19005;BME280;9635;52.078;8.648;2023-02-22T18:57:50;99977.81;;;10.64;64.61
19005;BME280;9635;52.078;8.648;2023-02-22T19:02:54;99986.72;;;10.65;64.28
19005;BME280;9635;52.078;8.648;2023-02-22T19:07:58;99983.03;;;10.66;63.71
19005;BME280;9635;52.078;8.648;2023-02-22T19:13:01;99983.19;;;10.74;63.31
19005;BME280;9635;52.078;8.648;2023-02-22T19:18:05;99984.31;;;10.71;62.84
19005;BME280;9635;52.078;8.648;2023-02-22T19:23:08;99987.00;;;10.71;62.92
19005;BME280;9635;52.078;8.648;2023-02-22T19:28:11;99984.28;;;10.61;62.91
19005;BME280;9635;52.078;8.648;2023-02-22T19:33:17;99972.25;;;10.56;63.00
19005;BME280;9635;52.078;8.648;2023-02-22T19:38:20;99982.34;;;10.43;63.25
19005;BME280;9635;52.078;8.648;2023-02-22T19:43:22;99980.06;;;10.38;63.49
19005;BME280;9635;52.078;8.648;2023-02-22T19:48:27;99969.72;;;10.33;63.53
19005;BME280;9635;52.078;8.648;2023-02-22T19:53:29;99974.44;;;10.20;63.88
19005;BME280;9635;52.078;8.648;2023-02-22T19:58:32;99978.66;;;10.13;64.12
19005;BME280;9635;52.078;8.648;2023-02-22T20:03:38;99988.06;;;10.07;64.33
19005;BME280;9635;52.078;8.648;2023-02-22T20:08:42;99984.19;;;10.00;64.48
19005;BME280;9635;52.078;8.648;2023-02-22T20:13:45;99986.41;;;9.95;64.86
19005;BME280;9635;52.078;8.648;2023-02-22T20:18:49;99988.78;;;9.88;65.04
19005;BME280;9635;52.078;8.648;2023-02-22T20:23:52;99994.63;;;9.82;65.42
19005;BME280;9635;52.078;8.648;2023-02-22T20:28:58;99986.13;;;9.77;65.49
19005;BME280;9635;52.078;8.648;2023-02-22T20:34:02;99986.50;;;9.72;65.42
19005;BME280;9635;52.078;8.648;2023-02-22T20:39:07;99991.91;;;9.61;65.63
19005;BME280;9635;52.078;8.648;2023-02-22T20:44:15;99996.91;;;9.66;65.44
19005;BME280;9635;52.078;8.648;2023-02-22T20:49:19;99994.69;;;9.71;65.20
19005;BME280;9635;52.078;8.648;2023-02-22T20:54:22;99993.75;;;9.61;65.43
19005;BME280;9635;52.078;8.648;2023-02-22T20:59:25;99994.50;;;9.51;65.64
19005;BME280;9635;52.078;8.648;2023-02-22T21:04:31;99996.63;;;9.69;65.24
19005;BME280;9635;52.078;8.648;2023-02-22T21:09:34;100004.59;;;9.59;65.44
19005;BME280;9635;52.078;8.648;2023-02-22T21:14:39;99997.75;;;9.66;65.20
19005;BME280;9635;52.078;8.648;2023-02-22T21:19:45;100006.63;;;9.67;65.24
19005;BME280;9635;52.078;8.648;2023-02-22T21:24:48;100007.22;;;9.70;65.13
19005;BME280;9635;52.078;8.648;2023-02-22T21:29:51;100012.25;;;9.64;65.31
19005;BME280;9635;52.078;8.648;2023-02-22T21:34:59;100002.97;;;9.68;65.22
19005;BME280;9635;52.078;8.648;2023-02-22T21:40:02;100017.72;;;9.62;65.34
19005;BME280;9635;52.078;8.648;2023-02-22T21:45:10;100016.41;;;9.57;65.35
19005;BME280;9635;52.078;8.648;2023-02-22T21:50:17;100020.84;;;9.46;65.71
19005;BME280;9635;52.078;8.648;2023-02-22T21:55:21;100011.34;;;9.42;66.05
19005;BME280;9635;52.078;8.648;2023-02-22T22:00:24;100014.16;;;9.41;66.05
19005;BME280;9635;52.078;8.648;2023-02-22T22:05:33;100014.75;;;9.44;66.28
19005;BME280;9635;52.078;8.648;2023-02-22T22:10:36;100019.38;;;9.42;66.23
19005;BME280;9635;52.078;8.648;2023-02-22T22:15:39;100019.06;;;9.36;66.59
19005;BME280;9635;52.078;8.648;2023-02-22T22:20:44;100014.34;;;9.17;67.30
19005;BME280;9635;52.078;8.648;2023-02-22T22:25:59;100023.59;;;8.90;68.16
19005;BME280;9635;52.078;8.648;2023-02-22T22:31:03;100017.66;;;8.75;69.05
19005;BME280;9635;52.078;8.648;2023-02-22T22:36:09;100025.69;;;8.75;69.15
19005;BME280;9635;52.078;8.648;2023-02-22T22:41:13;100025.19;;;8.70;69.42
19005;BME280;9635;52.078;8.648;2023-02-22T22:46:17;100038.34;;;8.73;69.47
19005;BME280;9635;52.078;8.648;2023-02-22T22:51:21;100031.75;;;8.77;69.56
19005;BME280;9635;52.078;8.648;2023-02-22T22:56:24;100037.94;;;8.55;70.11
19005;BME280;9635;52.078;8.648;2023-02-22T23:01:29;100038.84;;;8.21;71.79
19005;BME280;9635;52.078;8.648;2023-02-22T23:06:38;100052.22;;;8.21;71.95
19005;BME280;9635;52.078;8.648;2023-02-22T23:11:43;100042.44;;;8.08;72.18
19005;BME280;9635;52.078;8.648;2023-02-22T23:16:46;100045.28;;;8.18;72.33
19005;BME280;9635;52.078;8.648;2023-02-22T23:21:51;100051.25;;;8.33;71.82
19005;BME280;9635;52.078;8.648;2023-02-22T23:26:56;100059.16;;;7.88;74.12
19005;BME280;9635;52.078;8.648;2023-02-22T23:32:00;100066.28;;;8.11;73.57
19005;BME280;9635;52.078;8.648;2023-02-22T23:37:07;100063.88;;;8.20;73.31
19005;BME280;9635;52.078;8.648;2023-02-22T23:42:11;100071.81;;;8.32;72.95
19005;BME280;9635;52.078;8.648;2023-02-22T23:47:17;100064.88;;;8.30;73.12
19005;BME280;9635;52.078;8.648;2023-02-22T23:52:21;100078.94;;;8.09;74.04
19005;BME280;9635;52.078;8.648;2023-02-22T23:57:25;100077.56;;;8.04;74.32
